sensor_id;sensor_type;location;lat;lon;timestamp;P1;durP1;ratioP1;P2;durP2;ratioP2
41689;SDS011;27372;42.658;23.256;2023-05-13T00:01:27;20.83;;;9.88;;
41689;SDS011;27372;42.658;23.256;2023-05-13T00:03:52;19.48;;;9.00;;
41689;SDS011;27372;42.658;23.256;2023-05-13T00:06:17;11.27;;;6.72;;
41689;SDS011;27372;42.658;23.256;2023-05-13T00:08:43;11.35;;;6.60;;
41689;SDS011;27372;42.658;23.256;2023-05-13T00:11:12;10.60;;;6.70;;
41689;SDS011;27372;42.658;23.256;2023-05-13T00:13:40;16.20;;;8.32;;
41689;SDS011;27372;42.658;23.256;2023-05-13T00:16:05;15.13;;;8.05;;
41689;SDS011;27372;42.658;23.256;2023-05-13T00:18:33;17.40;;;9.27;;
41689;SDS011;27372;42.658;23.256;2023-05-13T00:21:02;13.48;;;7.75;;
41689;SDS011;27372;42.658;23.256;2023-05-13T00:23:33;15.40;;;8.50;;
41689;SDS011;27372;42.658;23.256;2023-05-13T00:25:59;15.75;;;8.88;;
41689;SDS011;27372;42.658;23.256;2023-05-13T00:28:31;15.40;;;9.55;;
41689;SDS011;27372;42.658;23.256;2023-05-13T00:31:09;14.77;;;9.98;;
41689;SDS011;27372;42.658;23.256;2023-05-13T00:33:34;17.02;;;10.63;;
41689;SDS011;27372;42.658;23.256;2023-05-13T00:36:03;13.38;;;10.30;;
41689;SDS011;27372;42.658;23.256;2023-05-13T00:38:34;16.30;;;10.45;;
41689;SDS011;27372;42.658;23.256;2023-05-13T00:40:59;12.88;;;9.55;;
41689;SDS011;27372;42.658;23.256;2023-05-13T00:43:31;13.10;;;9.82;;
41689;SDS011;27372;42.658;23.256;2023-05-13T00:45:57;15.18;;;10.05;;
41689;SDS011;27372;42.658;23.256;2023-05-13T00:48:23;13.40;;;9.45;;
41689;SDS011;27372;42.658;23.256;2023-05-13T00:50:48;12.90;;;8.82;;
41689;SDS011;27372;42.658;23.256;2023-05-13T00:53:20;11.68;;;8.27;;
41689;SDS011;27372;42.658;23.256;2023-05-13T00:55:46;10.98;;;7.95;;
41689;SDS011;27372;42.658;23.256;2023-05-13T00:58:12;12.98;;;8.43;;
41689;SDS011;27372;42.658;23.256;2023-05-13T01:04:06;10.05;;;7.22;;
41689;SDS011;27372;42.658;23.256;2023-05-13T01:09:39;10.63;;;7.35;;
41689;SDS011;27372;42.658;23.256;2023-05-13T01:12:40;9.60;;;6.20;;
41689;SDS011;27372;42.658;23.256;2023-05-13T01:15:08;11.88;;;7.40;;
41689;SDS011;27372;42.658;23.256;2023-05-13T01:17:52;15.13;;;7.68;;
41689;SDS011;27372;42.658;23.256;2023-05-13T01:20:34;11.63;;;7.40;;
41689;SDS011;27372;42.658;23.256;2023-05-13T01:23:05;11.43;;;7.25;;
41689;SDS011;27372;42.658;23.256;2023-05-13T01:25:30;12.75;;;8.18;;
41689;SDS011;27372;42.658;23.256;2023-05-13T01:27:56;15.63;;;8.70;;
41689;SDS011;27372;42.658;23.256;2023-05-13T01:30:22;12.80;;;7.85;;
41689;SDS011;27372;42.658;23.256;2023-05-13T01:32:50;10.57;;;6.93;;
41689;SDS011;27372;42.658;23.256;2023-05-13T01:35:17;12.43;;;8.43;;
41689;SDS011;27372;42.658;23.256;2023-05-13T01:37:47;12.75;;;8.00;;
41689;SDS011;27372;42.658;23.256;2023-05-13T01:40:14;12.93;;;8.25;;
41689;SDS011;27372;42.658;23.256;2023-05-13T01:42:41;14.70;;;8.70;;
41689;SDS011;27372;42.658;23.256;2023-05-13T01:45:09;9.57;;;7.75;;
41689;SDS011;27372;42.658;23.256;2023-05-13T01:47:35;13.07;;;7.80;;
41689;SDS011;27372;42.658;23.256;2023-05-13T01:50:00;11.20;;;7.97;;
41689;SDS011;27372;42.658;23.256;2023-05-13T01:52:25;18.33;;;8.90;;
41689;SDS011;27372;42.658;23.256;2023-05-13T01:54:54;11.93;;;7.78;;
41689;SDS011;27372;42.658;23.256;2023-05-13T01:57:25;12.95;;;7.47;;
41689;SDS011;27372;42.658;23.256;2023-05-13T01:59:50;9.75;;;7.93;;
41689;SDS011;27372;42.658;23.256;2023-05-13T02:02:17;12.10;;;7.97;;
41689;SDS011;27372;42.658;23.256;2023-05-13T02:04:42;11.43;;;7.63;;
41689;SDS011;27372;42.658;23.256;2023-05-13T02:07:08;12.00;;;7.65;;
41689;SDS011;27372;42.658;23.256;2023-05-13T02:09:33;10.38;;;7.50;;
41689;SDS011;27372;42.658;23.256;2023-05-13T02:11:59;10.63;;;7.45;;
41689;SDS011;27372;42.658;23.256;2023-05-13T02:14:27;9.93;;;7.25;;
41689;SDS011;27372;42.658;23.256;2023-05-13T02:16:52;12.80;;;7.20;;
41689;SDS011;27372;42.658;23.256;2023-05-13T02:19:21;10.98;;;7.03;;
41689;SDS011;27372;42.658;23.256;2023-05-13T02:21:46;8.52;;;6.75;;
41689;SDS011;27372;42.658;23.256;2023-05-13T02:24:15;9.52;;;6.80;;
41689;SDS011;27372;42.658;23.256;2023-05-13T02:26:41;9.40;;;6.88;;
41689;SDS011;27372;42.658;23.256;2023-05-13T02:29:06;8.48;;;7.05;;
41689;SDS011;27372;42.658;23.256;2023-05-13T02:31:34;13.47;;;8.93;;
41689;SDS011;27372;42.658;23.256;2023-05-13T02:34:01;12.30;;;8.10;;
41689;SDS011;27372;42.658;23.256;2023-05-13T02:36:27;12.73;;;8.45;;
41689;SDS011;27372;42.658;23.256;2023-05-13T02:38:52;12.70;;;8.13;;
41689;SDS011;27372;42.658;23.256;2023-05-13T02:41:18;10.40;;;8.20;;
41689;SDS011;27372;42.658;23.256;2023-05-13T02:43:43;16.77;;;11.45;;
41689;SDS011;27372;42.658;23.256;2023-05-13T02:46:10;13.32;;;9.38;;
41689;SDS011;27372;42.658;23.256;2023-05-13T02:48:38;14.70;;;9.27;;
41689;SDS011;27372;42.658;23.256;2023-05-13T02:51:03;14.05;;;9.75;;
41689;SDS011;27372;42.658;23.256;2023-05-13T02:53:29;15.77;;;9.77;;
41689;SDS011;27372;42.658;23.256;2023-05-13T02:55:55;11.82;;;9.48;;
41689;SDS011;27372;42.658;23.256;2023-05-13T02:58:20;12.23;;;9.98;;
41689;SDS011;27372;42.658;23.256;2023-05-13T03:00:50;19.48;;;11.10;;
41689;SDS011;27372;42.658;23.256;2023-05-13T03:03:15;13.40;;;9.48;;
41689;SDS011;27372;42.658;23.256;2023-05-13T03:05:41;21.05;;;13.88;;
41689;SDS011;27372;42.658;23.256;2023-05-13T03:08:09;15.77;;;10.30;;
41689;SDS011;27372;42.658;23.256;2023-05-13T03:10:37;14.23;;;9.35;;
41689;SDS011;27372;42.658;23.256;2023-05-13T03:13:02;14.63;;;9.25;;
41689;SDS011;27372;42.658;23.256;2023-05-13T03:15:28;10.60;;;7.43;;
41689;SDS011;27372;42.658;23.256;2023-05-13T03:17:56;11.13;;;7.97;;
41689;SDS011;27372;42.658;23.256;2023-05-13T03:20:21;11.27;;;8.38;;
41689;SDS011;27372;42.658;23.256;2023-05-13T03:22:47;14.27;;;8.40;;
41689;SDS011;27372;42.658;23.256;2023-05-13T03:25:15;12.63;;;8.88;;
41689;SDS011;27372;42.658;23.256;2023-05-13T03:27:40;14.32;;;9.40;;
41689;SDS011;27372;42.658;23.256;2023-05-13T03:30:06;14.80;;;9.77;;
41689;SDS011;27372;42.658;23.256;2023-05-13T03:32:32;18.45;;;10.60;;
41689;SDS011;27372;42.658;23.256;2023-05-13T03:34:58;15.05;;;10.18;;
41689;SDS011;27372;42.658;23.256;2023-05-13T03:37:27;12.98;;;9.15;;
41689;SDS011;27372;42.658;23.256;2023-05-13T03:39:55;13.73;;;9.07;;
41689;SDS011;27372;42.658;23.256;2023-05-13T03:42:21;13.02;;;9.40;;
41689;SDS011;27372;42.658;23.256;2023-05-13T03:44:47;13.32;;;9.65;;
41689;SDS011;27372;42.658;23.256;2023-05-13T03:47:16;11.95;;;8.93;;
41689;SDS011;27372;42.658;23.256;2023-05-13T03:49:41;13.40;;;8.45;;
41689;SDS011;27372;42.658;23.256;2023-05-13T03:52:07;12.38;;;8.43;;
41689;SDS011;27372;42.658;23.256;2023-05-13T03:54:35;12.88;;;9.45;;
41689;SDS011;27372;42.658;23.256;2023-05-13T03:57:01;16.17;;;8.98;;
41689;SDS011;27372;42.658;23.256;2023-05-13T03:59:28;15.15;;;9.43;;
41689;SDS011;27372;42.658;23.256;2023-05-13T04:02:00;12.63;;;8.52;;
41689;SDS011;27372;42.658;23.256;2023-05-13T04:04:25;11.82;;;8.48;;
41689;SDS011;27372;42.658;23.256;2023-05-13T04:06:51;10.55;;;8.07;;
41689;SDS011;27372;42.658;23.256;2023-05-13T04:09:16;11.43;;;8.05;;
41689;SDS011;27372;42.658;23.256;2023-05-13T04:11:41;13.70;;;8.85;;
41689;SDS011;27372;42.658;23.256;2023-05-13T04:14:08;13.80;;;9.52;;
41689;SDS011;27372;42.658;23.256;2023-05-13T04:16:33;13.82;;;8.98;;
41689;SDS011;27372;42.658;23.256;2023-05-13T04:18:59;14.30;;;8.70;;
41689;SDS011;27372;42.658;23.256;2023-05-13T04:21:24;12.35;;;8.65;;
41689;SDS011;27372;42.658;23.256;2023-05-13T04:23:50;12.10;;;8.63;;
41689;SDS011;27372;42.658;23.256;2023-05-13T04:26:15;13.57;;;7.97;;
41689;SDS011;27372;42.658;23.256;2023-05-13T04:28:40;11.73;;;7.72;;
41689;SDS011;27372;42.658;23.256;2023-05-13T04:31:06;11.50;;;7.78;;
41689;SDS011;27372;42.658;23.256;2023-05-13T04:33:35;10.65;;;7.55;;
41689;SDS011;27372;42.658;23.256;2023-05-13T04:36:01;11.18;;;7.72;;
41689;SDS011;27372;42.658;23.256;2023-05-13T04:38:26;13.20;;;8.88;;
41689;SDS011;27372;42.658;23.256;2023-05-13T04:40:51;9.32;;;7.88;;
41689;SDS011;27372;42.658;23.256;2023-05-13T04:43:17;12.93;;;8.35;;
41689;SDS011;27372;42.658;23.256;2023-05-13T04:45:42;10.02;;;8.10;;
41689;SDS011;27372;42.658;23.256;2023-05-13T04:48:08;12.73;;;8.43;;
41689;SDS011;27372;42.658;23.256;2023-05-13T04:50:33;11.10;;;8.43;;
41689;SDS011;27372;42.658;23.256;2023-05-13T04:52:58;10.10;;;7.50;;
41689;SDS011;27372;42.658;23.256;2023-05-13T04:55:24;12.13;;;7.97;;
41689;SDS011;27372;42.658;23.256;2023-05-13T04:57:49;16.80;;;8.38;;
41689;SDS011;27372;42.658;23.256;2023-05-13T05:00:17;11.30;;;8.43;;
41689;SDS011;27372;42.658;23.256;2023-05-13T05:02:43;12.60;;;8.35;;
41689;SDS011;27372;42.658;23.256;2023-05-13T05:05:11;13.18;;;8.48;;
41689;SDS011;27372;42.658;23.256;2023-05-13T05:07:37;14.20;;;8.18;;
41689;SDS011;27372;42.658;23.256;2023-05-13T05:10:05;11.00;;;7.35;;
41689;SDS011;27372;42.658;23.256;2023-05-13T05:12:31;9.80;;;7.03;;
41689;SDS011;27372;42.658;23.256;2023-05-13T05:14:57;11.70;;;7.13;;
41689;SDS011;27372;42.658;23.256;2023-05-13T05:17:43;11.40;;;7.63;;
41689;SDS011;27372;42.658;23.256;2023-05-13T05:20:09;10.88;;;7.10;;
41689;SDS011;27372;42.658;23.256;2023-05-13T05:22:36;12.07;;;7.50;;
41689;SDS011;27372;42.658;23.256;2023-05-13T05:25:02;10.23;;;6.50;;
41689;SDS011;27372;42.658;23.256;2023-05-13T05:27:28;8.35;;;5.90;;
41689;SDS011;27372;42.658;23.256;2023-05-13T05:29:53;9.88;;;5.53;;
41689;SDS011;27372;42.658;23.256;2023-05-13T05:32:19;9.15;;;5.53;;
41689;SDS011;27372;42.658;23.256;2023-05-13T05:34:44;9.77;;;5.90;;
41689;SDS011;27372;42.658;23.256;2023-05-13T05:37:10;8.13;;;6.32;;
41689;SDS011;27372;42.658;23.256;2023-05-13T05:39:35;10.57;;;6.22;;
41689;SDS011;27372;42.658;23.256;2023-05-13T05:42:01;12.73;;;6.20;;
41689;SDS011;27372;42.658;23.256;2023-05-13T05:44:26;10.32;;;6.38;;
41689;SDS011;27372;42.658;23.256;2023-05-13T05:46:51;11.13;;;6.57;;
41689;SDS011;27372;42.658;23.256;2023-05-13T05:49:17;8.52;;;6.20;;
41689;SDS011;27372;42.658;23.256;2023-05-13T05:51:43;7.82;;;6.10;;
41689;SDS011;27372;42.658;23.256;2023-05-13T05:54:08;9.68;;;6.68;;
41689;SDS011;27372;42.658;23.256;2023-05-13T05:56:33;11.48;;;6.97;;
41689;SDS011;27372;42.658;23.256;2023-05-13T05:59:02;11.20;;;6.82;;
41689;SDS011;27372;42.658;23.256;2023-05-13T06:01:28;10.13;;;6.65;;
41689;SDS011;27372;42.658;23.256;2023-05-13T06:04:01;12.25;;;6.38;;
41689;SDS011;27372;42.658;23.256;2023-05-13T06:06:27;11.27;;;6.55;;
41689;SDS011;27372;42.658;23.256;2023-05-13T06:08:52;9.30;;;6.63;;
41689;SDS011;27372;42.658;23.256;2023-05-13T06:11:20;10.00;;;6.32;;
41689;SDS011;27372;42.658;23.256;2023-05-13T06:13:46;9.13;;;6.60;;
41689;SDS011;27372;42.658;23.256;2023-05-13T06:16:12;12.65;;;6.60;;
41689;SDS011;27372;42.658;23.256;2023-05-13T06:18:37;10.38;;;6.40;;
41689;SDS011;27372;42.658;23.256;2023-05-13T06:21:02;10.80;;;6.75;;
41689;SDS011;27372;42.658;23.256;2023-05-13T06:23:32;11.88;;;6.45;;
41689;SDS011;27372;42.658;23.256;2023-05-13T06:25:57;10.02;;;6.57;;
41689;SDS011;27372;42.658;23.256;2023-05-13T06:28:23;10.30;;;7.10;;
41689;SDS011;27372;42.658;23.256;2023-05-13T06:30:52;9.95;;;6.72;;
41689;SDS011;27372;42.658;23.256;2023-05-13T06:33:18;8.30;;;5.80;;
41689;SDS011;27372;42.658;23.256;2023-05-13T06:35:46;11.85;;;6.47;;
41689;SDS011;27372;42.658;23.256;2023-05-13T06:38:16;11.13;;;6.30;;
41689;SDS011;27372;42.658;23.256;2023-05-13T06:40:42;6.80;;;5.30;;
41689;SDS011;27372;42.658;23.256;2023-05-13T06:43:08;11.88;;;5.35;;
41689;SDS011;27372;42.658;23.256;2023-05-13T06:45:36;6.88;;;5.20;;
41689;SDS011;27372;42.658;23.256;2023-05-13T06:48:02;10.10;;;5.18;;
41689;SDS011;27372;42.658;23.256;2023-05-13T06:50:27;10.10;;;5.45;;
41689;SDS011;27372;42.658;23.256;2023-05-13T06:52:53;8.52;;;5.35;;
41689;SDS011;27372;42.658;23.256;2023-05-13T06:55:18;9.95;;;6.00;;
41689;SDS011;27372;42.658;23.256;2023-05-13T06:57:44;13.65;;;5.82;;
41689;SDS011;27372;42.658;23.256;2023-05-13T07:00:13;7.93;;;6.00;;
41689;SDS011;27372;42.658;23.256;2023-05-13T07:02:39;16.63;;;6.30;;
41689;SDS011;27372;42.658;23.256;2023-05-13T07:05:05;9.68;;;6.40;;
41689;SDS011;27372;42.658;23.256;2023-05-13T07:07:31;9.88;;;6.15;;
41689;SDS011;27372;42.658;23.256;2023-05-13T07:09:59;12.48;;;7.07;;
41689;SDS011;27372;42.658;23.256;2023-05-13T07:12:25;10.40;;;5.88;;
41689;SDS011;27372;42.658;23.256;2023-05-13T07:14:53;10.50;;;6.80;;
41689;SDS011;27372;42.658;23.256;2023-05-13T07:17:19;10.98;;;6.28;;
41689;SDS011;27372;42.658;23.256;2023-05-13T07:19:44;12.38;;;6.43;;
41689;SDS011;27372;42.658;23.256;2023-05-13T07:22:09;10.93;;;7.07;;
41689;SDS011;27372;42.658;23.256;2023-05-13T07:24:35;9.30;;;6.40;;
41689;SDS011;27372;42.658;23.256;2023-05-13T07:27:01;11.07;;;6.85;;
41689;SDS011;27372;42.658;23.256;2023-05-13T07:29:28;10.50;;;6.53;;
41689;SDS011;27372;42.658;23.256;2023-05-13T07:32:01;9.10;;;6.63;;
41689;SDS011;27372;42.658;23.256;2023-05-13T07:34:27;10.55;;;6.93;;
41689;SDS011;27372;42.658;23.256;2023-05-13T07:36:53;9.55;;;6.97;;
41689;SDS011;27372;42.658;23.256;2023-05-13T07:39:18;13.20;;;7.53;;
41689;SDS011;27372;42.658;23.256;2023-05-13T07:41:43;8.70;;;6.45;;
41689;SDS011;27372;42.658;23.256;2023-05-13T07:44:18;9.47;;;6.97;;
41689;SDS011;27372;42.658;23.256;2023-05-13T07:46:43;11.43;;;6.82;;
41689;SDS011;27372;42.658;23.256;2023-05-13T07:49:09;11.20;;;6.75;;
41689;SDS011;27372;42.658;23.256;2023-05-13T07:51:34;12.07;;;6.70;;
41689;SDS011;27372;42.658;23.256;2023-05-13T07:54:00;11.88;;;6.72;;
41689;SDS011;27372;42.658;23.256;2023-05-13T07:56:28;10.65;;;6.90;;
41689;SDS011;27372;42.658;23.256;2023-05-13T07:58:54;10.95;;;7.68;;
41689;SDS011;27372;42.658;23.256;2023-05-13T08:01:22;14.65;;;8.10;;
41689;SDS011;27372;42.658;23.256;2023-05-13T08:03:48;13.33;;;7.67;;
41689;SDS011;27372;42.658;23.256;2023-05-13T08:06:13;13.50;;;8.30;;
41689;SDS011;27372;42.658;23.256;2023-05-13T08:08:39;12.18;;;7.63;;
41689;SDS011;27372;42.658;23.256;2023-05-13T08:11:04;12.88;;;7.88;;
41689;SDS011;27372;42.658;23.256;2023-05-13T08:13:29;12.55;;;7.82;;
41689;SDS011;27372;42.658;23.256;2023-05-13T08:15:55;12.75;;;8.00;;
41689;SDS011;27372;42.658;23.256;2023-05-13T08:18:20;14.35;;;7.68;;
41689;SDS011;27372;42.658;23.256;2023-05-13T08:20:46;14.45;;;8.02;;
41689;SDS011;27372;42.658;23.256;2023-05-13T08:23:14;10.93;;;7.90;;
41689;SDS011;27372;42.658;23.256;2023-05-13T08:25:40;14.13;;;8.10;;
41689;SDS011;27372;42.658;23.256;2023-05-13T08:28:05;18.85;;;9.13;;
41689;SDS011;27372;42.658;23.256;2023-05-13T08:30:30;11.52;;;8.00;;
41689;SDS011;27372;42.658;23.256;2023-05-13T08:32:56;12.95;;;8.38;;
41689;SDS011;27372;42.658;23.256;2023-05-13T08:35:21;13.48;;;8.40;;
41689;SDS011;27372;42.658;23.256;2023-05-13T08:37:50;13.05;;;8.32;;
41689;SDS011;27372;42.658;23.256;2023-05-13T08:40:15;17.13;;;8.52;;
41689;SDS011;27372;42.658;23.256;2023-05-13T08:42:41;12.63;;;8.27;;
41689;SDS011;27372;42.658;23.256;2023-05-13T08:45:07;11.55;;;8.20;;
41689;SDS011;27372;42.658;23.256;2023-05-13T08:50:00;13.88;;;8.27;;
41689;SDS011;27372;42.658;23.256;2023-05-13T08:52:29;10.55;;;8.32;;
41689;SDS011;27372;42.658;23.256;2023-05-13T08:54:56;13.02;;;8.15;;
41689;SDS011;27372;42.658;23.256;2023-05-13T08:57:32;11.95;;;9.13;;
41689;SDS011;27372;42.658;23.256;2023-05-13T08:59:58;11.50;;;8.05;;
41689;SDS011;27372;42.658;23.256;2023-05-13T09:02:23;12.07;;;8.70;;
41689;SDS011;27372;42.658;23.256;2023-05-13T09:04:52;14.65;;;8.40;;
41689;SDS011;27372;42.658;23.256;2023-05-13T09:07:25;12.40;;;8.40;;
41689;SDS011;27372;42.658;23.256;2023-05-13T09:09:50;13.30;;;8.27;;
41689;SDS011;27372;42.658;23.256;2023-05-13T09:15:19;11.18;;;7.70;;
41689;SDS011;27372;42.658;23.256;2023-05-13T09:17:49;18.17;;;7.95;;
41689;SDS011;27372;42.658;23.256;2023-05-13T09:20:17;12.93;;;8.10;;
41689;SDS011;27372;42.658;23.256;2023-05-13T09:22:49;13.85;;;8.25;;
41689;SDS011;27372;42.658;23.256;2023-05-13T09:25:34;9.38;;;7.50;;
41689;SDS011;27372;42.658;23.256;2023-05-13T09:28:02;11.80;;;7.07;;
41689;SDS011;27372;42.658;23.256;2023-05-13T09:30:33;12.93;;;7.45;;
41689;SDS011;27372;42.658;23.256;2023-05-13T09:35:29;13.43;;;7.03;;
41689;SDS011;27372;42.658;23.256;2023-05-13T09:37:59;9.98;;;6.72;;
41689;SDS011;27372;42.658;23.256;2023-05-13T09:40:24;9.90;;;6.95;;
41689;SDS011;27372;42.658;23.256;2023-05-13T09:42:50;10.18;;;6.90;;
41689;SDS011;27372;42.658;23.256;2023-05-13T09:45:18;8.98;;;7.20;;
41689;SDS011;27372;42.658;23.256;2023-05-13T09:47:49;9.68;;;7.00;;
41689;SDS011;27372;42.658;23.256;2023-05-13T09:50:19;9.05;;;7.05;;
41689;SDS011;27372;42.658;23.256;2023-05-13T09:52:45;8.93;;;6.97;;
41689;SDS011;27372;42.658;23.256;2023-05-13T09:55:11;8.95;;;7.03;;
41689;SDS011;27372;42.658;23.256;2023-05-13T09:57:37;9.05;;;7.10;;
41689;SDS011;27372;42.658;23.256;2023-05-13T10:00:03;11.57;;;7.00;;
41689;SDS011;27372;42.658;23.256;2023-05-13T10:02:30;11.02;;;6.50;;
41689;SDS011;27372;42.658;23.256;2023-05-13T10:05:21;11.45;;;6.53;;
41689;SDS011;27372;42.658;23.256;2023-05-13T10:07:52;10.55;;;6.38;;
41689;SDS011;27372;42.658;23.256;2023-05-13T10:10:28;10.73;;;6.57;;
41689;SDS011;27372;42.658;23.256;2023-05-13T10:13:11;14.35;;;6.88;;
41689;SDS011;27372;42.658;23.256;2023-05-13T10:15:56;10.20;;;6.72;;
41689;SDS011;27372;42.658;23.256;2023-05-13T10:18:31;9.63;;;7.03;;
41689;SDS011;27372;42.658;23.256;2023-05-13T10:21:04;11.32;;;7.18;;
41689;SDS011;27372;42.658;23.256;2023-05-13T10:23:41;9.63;;;7.25;;
41689;SDS011;27372;42.658;23.256;2023-05-13T10:26:08;7.10;;;6.35;;
41689;SDS011;27372;42.658;23.256;2023-05-13T10:29:12;10.32;;;6.22;;
41689;SDS011;27372;42.658;23.256;2023-05-13T10:31:38;8.80;;;7.07;;
41689;SDS011;27372;42.658;23.256;2023-05-13T10:34:05;8.82;;;6.57;;
41689;SDS011;27372;42.658;23.256;2023-05-13T10:39:35;8.10;;;6.45;;
41689;SDS011;27372;42.658;23.256;2023-05-13T10:45:09;9.73;;;6.30;;
41689;SDS011;27372;42.658;23.256;2023-05-13T10:47:35;11.82;;;6.10;;
41689;SDS011;27372;42.658;23.256;2023-05-13T10:50:04;10.30;;;6.22;;
41689;SDS011;27372;42.658;23.256;2023-05-13T10:52:45;10.27;;;6.70;;
41689;SDS011;27372;42.658;23.256;2023-05-13T10:55:18;7.15;;;5.82;;
41689;SDS011;27372;42.658;23.256;2023-05-13T11:00:39;10.48;;;6.18;;
41689;SDS011;27372;42.658;23.256;2023-05-13T11:13:51;12.27;;;5.95;;
41689;SDS011;27372;42.658;23.256;2023-05-13T11:16:19;10.40;;;5.60;;
41689;SDS011;27372;42.658;23.256;2023-05-13T11:18:45;7.70;;;5.40;;
41689;SDS011;27372;42.658;23.256;2023-05-13T11:21:10;10.20;;;5.90;;
41689;SDS011;27372;42.658;23.256;2023-05-13T11:26:44;6.93;;;4.93;;
41689;SDS011;27372;42.658;23.256;2023-05-13T11:29:14;9.10;;;6.20;;
41689;SDS011;27372;42.658;23.256;2023-05-13T11:31:50;8.65;;;6.05;;
41689;SDS011;27372;42.658;23.256;2023-05-13T11:34:17;8.27;;;5.32;;
41689;SDS011;27372;42.658;23.256;2023-05-13T11:36:44;9.43;;;5.40;;
41689;SDS011;27372;42.658;23.256;2023-05-13T11:39:20;7.20;;;4.97;;
41689;SDS011;27372;42.658;23.256;2023-05-13T11:41:49;9.18;;;5.30;;
41689;SDS011;27372;42.658;23.256;2023-05-13T11:44:20;7.80;;;4.97;;
41689;SDS011;27372;42.658;23.256;2023-05-13T11:46:59;7.80;;;5.10;;
41689;SDS011;27372;42.658;23.256;2023-05-13T11:49:38;9.35;;;5.25;;
41689;SDS011;27372;42.658;23.256;2023-05-13T11:57:20;9.63;;;4.55;;
41689;SDS011;27372;42.658;23.256;2023-05-13T12:02:42;9.52;;;4.38;;
41689;SDS011;27372;42.658;23.256;2023-05-13T12:05:10;6.13;;;4.40;;
41689;SDS011;27372;42.658;23.256;2023-05-13T12:07:36;11.45;;;4.47;;
41689;SDS011;27372;42.658;23.256;2023-05-13T12:10:03;5.55;;;4.35;;
41689;SDS011;27372;42.658;23.256;2023-05-13T12:12:32;5.97;;;4.22;;
41689;SDS011;27372;42.658;23.256;2023-05-13T12:15:03;8.25;;;3.92;;
41689;SDS011;27372;42.658;23.256;2023-05-13T12:17:31;5.57;;;3.72;;
41689;SDS011;27372;42.658;23.256;2023-05-13T12:20:04;9.40;;;4.20;;
41689;SDS011;27372;42.658;23.256;2023-05-13T12:27:55;7.47;;;3.90;;
41689;SDS011;27372;42.658;23.256;2023-05-13T12:30:21;9.25;;;4.03;;
41689;SDS011;27372;42.658;23.256;2023-05-13T12:32:47;11.05;;;4.25;;
41689;SDS011;27372;42.658;23.256;2023-05-13T12:35:12;8.80;;;4.60;;
41689;SDS011;27372;42.658;23.256;2023-05-13T12:37:40;8.30;;;4.18;;
41689;SDS011;27372;42.658;23.256;2023-05-13T12:40:13;7.00;;;4.30;;
41689;SDS011;27372;42.658;23.256;2023-05-13T12:42:43;8.35;;;4.78;;
41689;SDS011;27372;42.658;23.256;2023-05-13T12:45:09;8.60;;;4.70;;
41689;SDS011;27372;42.658;23.256;2023-05-13T12:47:50;9.57;;;4.80;;
41689;SDS011;27372;42.658;23.256;2023-05-13T12:50:16;4.60;;;4.15;;
41689;SDS011;27372;42.658;23.256;2023-05-13T12:52:42;6.03;;;4.43;;
41689;SDS011;27372;42.658;23.256;2023-05-13T12:55:08;8.43;;;4.55;;
41689;SDS011;27372;42.658;23.256;2023-05-13T12:57:39;6.18;;;3.97;;
41689;SDS011;27372;42.658;23.256;2023-05-13T13:00:18;7.88;;;4.60;;
41689;SDS011;27372;42.658;23.256;2023-05-13T13:02:44;13.25;;;4.70;;
41689;SDS011;27372;42.658;23.256;2023-05-13T13:05:12;9.77;;;4.30;;
41689;SDS011;27372;42.658;23.256;2023-05-13T13:07:38;6.97;;;4.45;;
41689;SDS011;27372;42.658;23.256;2023-05-13T13:10:06;6.80;;;4.63;;
41689;SDS011;27372;42.658;23.256;2023-05-13T13:12:32;8.50;;;5.13;;
41689;SDS011;27372;42.658;23.256;2023-05-13T13:14:57;7.53;;;4.60;;
41689;SDS011;27372;42.658;23.256;2023-05-13T13:17:23;6.55;;;4.90;;
41689;SDS011;27372;42.658;23.256;2023-05-13T13:19:48;8.57;;;4.88;;
41689;SDS011;27372;42.658;23.256;2023-05-13T13:22:19;5.57;;;4.60;;
41689;SDS011;27372;42.658;23.256;2023-05-13T13:24:48;8.05;;;4.85;;
41689;SDS011;27372;42.658;23.256;2023-05-13T13:27:13;7.50;;;4.85;;
41689;SDS011;27372;42.658;23.256;2023-05-13T13:29:39;8.88;;;4.57;;
41689;SDS011;27372;42.658;23.256;2023-05-13T13:32:04;9.25;;;4.70;;
41689;SDS011;27372;42.658;23.256;2023-05-13T13:34:30;7.90;;;4.38;;
41689;SDS011;27372;42.658;23.256;2023-05-13T13:36:56;6.93;;;4.30;;
41689;SDS011;27372;42.658;23.256;2023-05-13T13:39:21;10.20;;;4.40;;
41689;SDS011;27372;42.658;23.256;2023-05-13T13:41:46;6.20;;;4.13;;
41689;SDS011;27372;42.658;23.256;2023-05-13T13:44:12;8.98;;;4.53;;
41689;SDS011;27372;42.658;23.256;2023-05-13T13:46:37;7.00;;;4.53;;
41689;SDS011;27372;42.658;23.256;2023-05-13T13:49:03;9.07;;;4.30;;
41689;SDS011;27372;42.658;23.256;2023-05-13T13:51:28;8.98;;;4.07;;
41689;SDS011;27372;42.658;23.256;2023-05-13T13:53:54;6.07;;;4.07;;
41689;SDS011;27372;42.658;23.256;2023-05-13T13:56:20;5.57;;;4.05;;
41689;SDS011;27372;42.658;23.256;2023-05-13T13:58:46;4.65;;;3.90;;
41689;SDS011;27372;42.658;23.256;2023-05-13T14:01:14;6.50;;;3.90;;
41689;SDS011;27372;42.658;23.256;2023-05-13T14:03:39;8.18;;;3.90;;
41689;SDS011;27372;42.658;23.256;2023-05-13T14:06:10;6.37;;;4.10;;
41689;SDS011;27372;42.658;23.256;2023-05-13T14:08:35;8.40;;;4.57;;
41689;SDS011;27372;42.658;23.256;2023-05-13T14:11:01;8.90;;;4.63;;
41689;SDS011;27372;42.658;23.256;2023-05-13T14:13:26;6.38;;;4.28;;
41689;SDS011;27372;42.658;23.256;2023-05-13T14:15:52;7.35;;;4.40;;
41689;SDS011;27372;42.658;23.256;2023-05-13T14:18:26;7.20;;;4.10;;
41689;SDS011;27372;42.658;23.256;2023-05-13T14:20:51;7.18;;;4.50;;
41689;SDS011;27372;42.658;23.256;2023-05-13T14:23:20;8.57;;;4.40;;
41689;SDS011;27372;42.658;23.256;2023-05-13T14:25:45;6.82;;;4.38;;
41689;SDS011;27372;42.658;23.256;2023-05-13T14:28:10;7.35;;;4.28;;
41689;SDS011;27372;42.658;23.256;2023-05-13T14:30:37;11.30;;;4.32;;
41689;SDS011;27372;42.658;23.256;2023-05-13T14:33:02;4.90;;;4.05;;
41689;SDS011;27372;42.658;23.256;2023-05-13T14:35:28;6.85;;;4.13;;
41689;SDS011;27372;42.658;23.256;2023-05-13T14:37:53;8.07;;;3.90;;
41689;SDS011;27372;42.658;23.256;2023-05-13T14:40:19;5.70;;;4.00;;
41689;SDS011;27372;42.658;23.256;2023-05-13T14:42:44;4.47;;;3.90;;
41689;SDS011;27372;42.658;23.256;2023-05-13T14:45:13;7.15;;;3.92;;
41689;SDS011;27372;42.658;23.256;2023-05-13T14:47:38;5.05;;;4.20;;
41689;SDS011;27372;42.658;23.256;2023-05-13T14:50:07;7.13;;;4.28;;
41689;SDS011;27372;42.658;23.256;2023-05-13T14:52:36;7.88;;;4.30;;
41689;SDS011;27372;42.658;23.256;2023-05-13T14:55:01;6.95;;;4.40;;
41689;SDS011;27372;42.658;23.256;2023-05-13T14:57:30;7.20;;;4.55;;
41689;SDS011;27372;42.658;23.256;2023-05-13T14:59:58;9.68;;;4.80;;
41689;SDS011;27372;42.658;23.256;2023-05-13T15:02:23;7.32;;;4.30;;
41689;SDS011;27372;42.658;23.256;2023-05-13T15:04:49;8.77;;;4.50;;
41689;SDS011;27372;42.658;23.256;2023-05-13T15:07:14;11.50;;;4.93;;
41689;SDS011;27372;42.658;23.256;2023-05-13T15:09:40;12.20;;;5.30;;
41689;SDS011;27372;42.658;23.256;2023-05-13T15:12:05;12.77;;;5.78;;
41689;SDS011;27372;42.658;23.256;2023-05-13T15:14:31;10.48;;;5.57;;
41689;SDS011;27372;42.658;23.256;2023-05-13T15:16:56;10.23;;;5.03;;
41689;SDS011;27372;42.658;23.256;2023-05-13T15:19:22;7.53;;;4.22;;